createdAt,value
2023-02-17T00:00:14.372Z,98672.75
2023-02-17T00:02:40.725Z,98672.75
2023-02-17T00:05:07.099Z,98672.44
2023-02-17T00:07:33.438Z,98674.06
2023-02-17T00:10:00.024Z,98670.06
2023-02-17T00:12:26.356Z,98670.84
2023-02-17T00:14:52.667Z,98665.78
2023-02-17T00:17:19.034Z,98673.78
2023-02-17T00:19:45.527Z,98657.50
2023-02-17T00:22:11.855Z,98658.78
2023-02-17T00:24:38.603Z,98650.78
2023-02-17T00:27:05.029Z,98646.53
2023-02-17T00:29:31.397Z,98643.31
2023-02-17T00:31:57.771Z,98638.50
2023-02-17T00:34:24.154Z,98631.84
2023-02-17T00:36:50.474Z,98637.66
2023-02-17T00:39:16.962Z,98631.53
2023-02-17T00:41:43.288Z,98631.28
2023-02-17T00:44:17.189Z,98626.47
2023-02-17T00:46:43.754Z,98616.84
2023-02-17T00:49:14.475Z,98619.78
2023-02-17T00:51:40.796Z,98620.84
2023-02-17T00:54:07.115Z,98618.66
2023-02-17T00:56:33.428Z,98614.94
2023-02-17T00:58:59.740Z,98623.47
2023-02-17T01:01:26.063Z,98625.88
2023-02-17T01:03:52.375Z,98616.78
2023-02-17T01:06:21.775Z,98614.91
2023-02-17T01:08:48.153Z,98608.25
2023-02-17T01:11:18.052Z,98605.56
2023-02-17T01:13:44.606Z,98620.78
2023-02-17T01:16:37.406Z,98621.25
2023-02-17T01:19:04.172Z,98612.72
2023-02-17T01:21:30.484Z,98614.56
2023-02-17T01:23:57.262Z,98609.78
2023-02-17T01:26:24.239Z,98611.84
2023-02-17T01:28:50.672Z,98609.13
2023-02-17T01:31:17.074Z,98603.81
2023-02-17T01:33:43.484Z,98597.94
2023-02-17T01:36:10.348Z,98598.19
2023-02-17T01:38:36.766Z,98597.38
2023-02-17T01:41:03.142Z,98596.03
2023-02-17T01:43:29.459Z,98590.94
2023-02-17T01:45:56.294Z,98586.69
2023-02-17T01:48:23.049Z,98588.00
2023-02-17T01:50:52.408Z,98582.13
2023-02-17T01:53:20.376Z,98585.59
2023-02-17T01:55:46.668Z,98569.88
2023-02-17T01:58:13.719Z,98561.34
2023-02-17T02:00:40.032Z,98568.53
2023-02-17T02:03:06.772Z,98566.66
2023-02-17T02:05:33.092Z,98561.34
2023-02-17T02:07:59.456Z,98559.47
2023-02-17T02:10:25.774Z,98559.72
2023-02-17T02:12:52.860Z,98554.66
2023-02-17T02:15:22.749Z,98546.91
2023-02-17T02:17:48.984Z,98542.66
2023-02-17T02:20:15.251Z,98538.63
2023-02-17T02:22:44.503Z,98530.59
2023-02-17T02:25:18.147Z,98516.50
2023-02-17T02:27:51.732Z,98513.25
2023-02-17T02:30:21.113Z,98515.13
2023-02-17T02:32:50.521Z,98522.56
2023-02-17T02:35:16.751Z,98520.97
2023-02-17T02:37:44.119Z,98515.88
2023-02-17T02:40:10.449Z,98510.84
2023-02-17T02:42:36.790Z,98512.69
2023-02-17T02:45:05.482Z,98500.94
2023-02-17T02:47:48.482Z,98508.66
2023-02-17T02:50:16.275Z,98507.31
2023-02-17T02:52:46.417Z,98514.50
2023-02-17T02:55:15.583Z,98515.53
2023-02-17T02:57:48.050Z,98512.66
2023-02-17T03:00:17.229Z,98507.56
2023-02-17T03:02:52.305Z,98499.34
2023-02-17T03:05:39.139Z,98509.19
2023-02-17T03:08:10.340Z,98506.00
2023-02-17T03:10:36.676Z,98504.72
2023-02-17T03:13:03.050Z,98498.59
2023-02-17T03:15:30.456Z,98500.44
2023-02-17T03:17:57.813Z,98495.13
2023-02-17T03:20:24.137Z,98498.00
2023-02-17T03:22:50.673Z,98491.09
2023-02-17T03:25:16.994Z,98488.44
2023-02-17T03:27:43.381Z,98484.16
2023-02-17T03:30:09.997Z,98474.59
2023-02-17T03:32:36.341Z,98461.78
2023-02-17T03:35:02.688Z,98461.25
2023-02-17T03:37:28.987Z,98459.38
2023-02-17T03:39:55.534Z,98445.50
2023-02-17T03:42:21.915Z,98438.59
2023-02-17T03:44:48.246Z,98444.44
2023-02-17T03:47:14.661Z,98433.84
2023-02-17T03:49:41.211Z,98438.41
2023-02-17T03:52:07.534Z,98442.13
2023-02-17T03:54:33.848Z,98446.41
2023-02-17T03:57:01.143Z,98452.75
2023-02-17T03:59:27.680Z,98445.84
2023-02-17T04:01:53.992Z,98445.03
2023-02-17T04:04:20.348Z,98440.78
2023-02-17T04:06:46.686Z,98446.34
2023-02-17T04:09:13.063Z,98448.19
2023-02-17T04:11:39.630Z,98442.34
2023-02-17T04:14:05.968Z,98456.97
2023-02-17T04:16:32.284Z,98437.28
2023-02-17T04:18:58.617Z,98447.94
2023-02-17T04:21:24.928Z,98446.31
2023-02-17T04:23:51.265Z,98458.56
2023-02-17T04:26:17.937Z,98456.94
2023-02-17T04:28:44.546Z,98443.91
2023-02-17T04:31:11.245Z,98453.75
2023-02-17T04:33:37.997Z,98448.13
2023-02-17T04:36:04.906Z,98447.59
2023-02-17T04:38:31.617Z,98454.78
2023-02-17T04:40:58.048Z,98440.69
2023-02-17T04:43:25.059Z,98448.88
2023-02-17T04:45:51.414Z,98455.28
2023-02-17T04:48:17.865Z,98463.75
2023-02-17T04:50:44.203Z,98460.06
2023-02-17T04:53:10.521Z,98461.09
2023-02-17T04:55:37.123Z,98469.34
2023-02-17T04:58:03.437Z,98457.34
2023-02-17T05:00:30.497Z,98458.69
2023-02-17T05:02:56.805Z,98462.72
2023-02-17T05:05:23.144Z,98445.69
2023-02-17T05:07:49.769Z,98438.78
2023-02-17T05:10:16.440Z,98432.38
2023-02-17T05:12:42.746Z,98423.59
2023-02-17T05:15:09.201Z,98430.53
2023-02-17T05:17:35.512Z,98427.06
2023-02-17T05:20:01.927Z,98419.09
2023-02-17T05:22:28.240Z,98408.66
2023-02-17T05:24:54.592Z,98420.94
2023-02-17T05:27:20.905Z,98408.94
2023-02-17T05:29:47.293Z,98400.94
2023-02-17T05:32:13.617Z,98403.88
2023-02-17T05:34:39.936Z,98411.06
2023-02-17T05:37:06.257Z,98402.28
2023-02-17T05:39:32.578Z,98400.66
2023-02-17T05:41:58.922Z,98389.22
2023-02-17T05:44:25.979Z,98384.94
2023-02-17T05:46:52.304Z,98389.47
2023-02-17T05:49:18.631Z,98391.81
2023-02-17T05:51:45.181Z,98392.59
2023-02-17T05:54:11.524Z,98399.56
2023-02-17T05:56:37.846Z,98399.00
2023-02-17T05:59:04.161Z,98400.84
2023-02-17T06:01:30.511Z,98405.63
2023-02-17T06:03:56.924Z,98404.56
2023-02-17T06:06:23.240Z,98400.53
2023-02-17T06:08:49.551Z,98392.56
2023-02-17T06:11:15.863Z,98371.06
2023-02-17T06:13:42.187Z,98381.16
2023-02-17T06:16:08.767Z,98375.03
2023-02-17T06:18:35.294Z,98373.19
2023-02-17T06:21:01.601Z,98361.81
2023-02-17T06:23:27.986Z,98373.50
2023-02-17T06:25:54.294Z,98383.34
2023-02-17T06:28:20.611Z,98388.91
2023-02-17T06:30:46.932Z,98378.50
2023-02-17T06:33:13.235Z,98383.03
2023-02-17T06:35:39.562Z,98374.25
2023-02-17T06:38:06.265Z,98360.91
2023-02-17T06:40:32.845Z,98368.13
2023-02-17T06:42:59.164Z,98366.53
2023-02-17T06:45:25.520Z,98370.22
2023-02-17T06:47:51.843Z,98369.41
2023-02-17T06:50:18.211Z,98363.06
2023-02-17T06:52:44.525Z,98361.44
2023-02-17T06:55:10.872Z,98354.25
2023-02-17T06:57:37.418Z,98369.41
2023-02-17T07:00:04.481Z,98371.84
2023-02-17T07:02:31.140Z,98377.69
2023-02-17T07:04:57.495Z,98377.97
2023-02-17T07:07:23.801Z,98380.06
2023-02-17T07:09:50.227Z,98395.78
2023-02-17T07:12:16.535Z,98399.25
2023-02-17T07:14:43.014Z,98400.31
2023-02-17T07:17:09.384Z,98387.25
2023-02-17T07:19:35.785Z,98403.47
2023-02-17T07:22:02.699Z,98402.91
2023-02-17T07:24:29.025Z,98394.69
2023-02-17T07:26:56.113Z,98398.94
2023-02-17T07:29:22.657Z,98381.41
2023-02-17T07:31:49.012Z,98379.03
2023-02-17T07:34:15.351Z,98374.84
2023-02-17T07:36:41.745Z,98382.94
2023-02-17T07:39:08.055Z,98369.47
2023-02-17T07:41:34.692Z,98381.53
2023-02-17T07:44:01.012Z,98377.28
2023-02-17T07:46:27.380Z,98353.03
2023-02-17T07:48:53.731Z,98363.19
2023-02-17T07:51:21.242Z,98371.94
2023-02-17T07:53:47.894Z,98365.56
2023-02-17T07:56:14.739Z,98350.63
2023-02-17T07:58:41.349Z,98351.97
2023-02-17T08:01:08.135Z,98340.00
2023-02-17T08:03:34.469Z,98342.66
2023-02-17T08:06:00.960Z,98352.66
2023-02-17T08:08:45.834Z,98358.28
2023-02-17T08:11:31.124Z,98359.63
2023-02-17T08:13:57.444Z,98356.41
2023-02-17T08:16:23.898Z,98349.22
2023-02-17T08:18:50.241Z,98368.63
2023-02-17T08:21:16.573Z,98352.66
2023-02-17T08:23:45.173Z,98341.72
2023-02-17T08:26:11.756Z,98355.03
2023-02-17T08:28:38.077Z,98352.34
2023-02-17T08:31:04.646Z,98348.63
2023-02-17T08:33:31.040Z,98356.59
2023-02-17T08:35:57.629Z,98355.91
2023-02-17T08:38:24.031Z,98356.44
2023-02-17T08:40:50.394Z,98341.56
2023-02-17T08:43:16.700Z,98342.34
2023-02-17T08:45:43.046Z,98338.09
2023-02-17T08:48:09.407Z,98333.31
2023-02-17T08:50:36.035Z,98327.19
2023-02-17T08:53:02.358Z,98338.59
2023-02-17T08:55:33.486Z,98326.38
2023-02-17T08:58:07.139Z,98321.03
2023-02-17T09:00:33.537Z,98316.25
2023-02-17T09:02:59.906Z,98311.19
2023-02-17T09:05:26.822Z,98321.03
2023-02-17T09:07:53.156Z,98307.19
2023-02-17T09:10:19.481Z,98302.66
2023-02-17T09:12:46.067Z,98298.16
2023-02-17T09:15:12.429Z,98305.06
2023-02-17T09:17:39.821Z,98296.28
2023-02-17T09:20:16.234Z,98292.56
2023-02-17T09:22:51.429Z,98300.53
2023-02-17T09:25:17.826Z,98294.69
2023-02-17T09:27:44.199Z,98294.91
2023-02-17T09:30:10.768Z,98307.44
2023-02-17T09:32:37.145Z,98296.78
2023-02-17T09:35:05.994Z,98319.16
2023-02-17T09:37:32.347Z,98310.63
2023-02-17T09:39:58.652Z,98306.34
2023-02-17T09:42:25.476Z,98325.28
2023-02-17T09:44:56.119Z,98297.88
2023-02-17T09:47:23.463Z,98293.06
2023-02-17T09:50:03.489Z,98306.16
2023-02-17T09:52:48.942Z,98304.88
2023-02-17T09:55:16.245Z,98318.72
2023-02-17T09:57:54.283Z,98307.00
2023-02-17T10:00:25.228Z,98320.88
2023-02-17T10:02:56.054Z,98342.41
2023-02-17T10:05:22.744Z,98329.09
2023-02-17T10:07:50.856Z,98338.16
2023-02-17T10:10:21.098Z,98337.38
2023-02-17T10:12:49.482Z,98315.78
2023-02-17T10:15:21.262Z,98337.06
2023-02-17T10:17:52.772Z,98335.75
2023-02-17T10:20:34.483Z,98320.81
2023-02-17T10:23:10.593Z,98308.84
2023-02-17T10:25:50.818Z,98315.22
2023-02-17T10:28:37.385Z,98341.06
2023-02-17T10:31:04.845Z,98317.91
2023-02-17T10:33:38.176Z,98322.69
2023-02-17T10:36:10.472Z,98328.81
2023-02-17T10:39:12.360Z,98320.28
2023-02-17T10:41:38.684Z,98313.09
2023-02-17T10:44:18.227Z,98300.63
2023-02-17T10:46:44.653Z,98295.28
2023-02-17T10:49:14.747Z,98304.63
2023-02-17T10:51:41.071Z,98308.41
2023-02-17T10:54:07.811Z,98288.22
2023-02-17T10:56:35.616Z,98282.38
2023-02-17T10:59:06.318Z,98294.38
2023-02-17T11:01:32.651Z,98282.41
2023-02-17T11:04:02.976Z,98282.91
2023-02-17T11:06:29.324Z,98288.53
2023-02-17T11:08:59.901Z,98285.06
2023-02-17T11:11:26.903Z,98276.50
2023-02-17T11:14:04.446Z,98275.72
2023-02-17T11:16:41.396Z,98260.28
2023-02-17T11:19:08.109Z,98255.19
2023-02-17T11:21:34.712Z,98243.72
2023-02-17T11:24:02.191Z,98224.56
2023-02-17T11:26:29.617Z,98240.28
2023-02-17T11:29:06.269Z,98249.34
2023-02-17T11:31:32.704Z,98253.88
2023-02-17T11:33:59.045Z,98242.41
2023-02-17T11:36:29.189Z,98240.28
2023-02-17T11:38:55.652Z,98239.47
2023-02-17T11:41:22.065Z,98231.22
2023-02-17T11:43:55.319Z,98241.06
2023-02-17T11:46:22.118Z,98244.28
2023-02-17T11:48:56.067Z,98231.47
2023-02-17T11:51:28.389Z,98240.25
2023-02-17T11:54:01.130Z,98229.88
2023-02-17T11:56:33.076Z,98216.28
2023-02-17T11:59:07.018Z,98217.09
2023-02-17T12:01:45.269Z,98222.69
2023-02-17T12:04:12.004Z,98212.81
2023-02-17T12:06:41.501Z,98212.56
2023-02-17T12:09:10.914Z,98207.50
2023-02-17T12:11:40.998Z,98198.44
2023-02-17T12:14:19.728Z,98206.69
2023-02-17T12:16:57.612Z,98194.19
2023-02-17T12:19:30.923Z,98198.44
2023-02-17T12:22:15.796Z,98205.38
2023-02-17T12:25:05.449Z,98212.00
2023-02-17T12:27:50.523Z,98204.03
2023-02-17T12:30:29.281Z,98198.97
2023-02-17T12:32:58.988Z,98218.97
2023-02-17T12:35:25.982Z,98210.16
2023-02-17T12:37:56.792Z,98209.09
2023-02-17T12:40:34.048Z,98198.16
2023-02-17T12:43:01.331Z,98198.97
2023-02-17T12:45:33.300Z,98202.44
2023-02-17T12:48:01.400Z,98197.91
2023-02-17T12:50:32.863Z,98215.47
2023-02-17T12:53:00.467Z,98198.97
2023-02-17T12:55:52.823Z,98190.69
2023-02-17T12:58:22.687Z,98223.47
2023-02-17T13:01:09.535Z,98210.69
2023-02-17T13:03:35.992Z,98218.16
2023-02-17T13:06:03.138Z,98212.31
2023-02-17T13:08:31.902Z,98214.44
2023-02-17T13:11:01.984Z,98240.03
2023-02-17T13:13:29.132Z,98225.63
2023-02-17T13:16:11.844Z,98217.63
2023-02-17T13:18:39.066Z,98214.94
2023-02-17T13:21:20.530Z,98217.59
2023-02-17T13:23:58.022Z,98217.38
2023-02-17T13:26:25.573Z,98222.44
2023-02-17T13:28:53.274Z,98209.09
2023-02-17T13:31:23.842Z,98241.09
2023-02-17T13:33:51.258Z,98235.75
2023-02-17T13:36:22.324Z,98249.09
2023-02-17T13:38:52.434Z,98229.91
2023-02-17T13:41:18.764Z,98238.44
2023-02-17T13:43:45.101Z,98245.63
2023-02-17T13:46:13.211Z,98239.50
2023-02-17T13:48:39.535Z,98252.03
2023-02-17T13:51:06.090Z,98248.28
2023-02-17T13:53:33.161Z,98279.50
2023-02-17T13:56:00.329Z,98266.69
2023-02-17T13:58:28.235Z,98286.94
2023-02-17T14:00:54.943Z,98285.91
2023-02-17T14:03:22.498Z,98284.28
2023-02-17T14:05:49.243Z,98269.34
2023-02-17T14:08:34.375Z,98281.59
2023-02-17T14:11:10.997Z,98277.34
2023-02-17T14:13:37.744Z,98278.94
2023-02-17T14:16:06.718Z,98270.13
2023-02-17T14:18:37.849Z,98277.06
2023-02-17T14:21:11.042Z,98274.69
2023-02-17T14:23:41.340Z,98273.59
2023-02-17T14:26:11.474Z,98283.75
2023-02-17T14:28:37.821Z,98278.94
2023-02-17T14:31:10.651Z,98276.81
2023-02-17T14:33:37.125Z,98266.16
2023-02-17T14:36:06.318Z,98270.94
2023-02-17T14:38:35.066Z,98264.56
2023-02-17T14:41:01.432Z,98264.81
2023-02-17T14:43:27.788Z,98262.94
2023-02-17T14:45:54.160Z,98259.75
2023-02-17T14:48:20.527Z,98256.53
2023-02-17T14:50:47.011Z,98270.94
2023-02-17T14:53:14.159Z,98277.06
2023-02-17T14:55:48.164Z,98288.28
2023-02-17T14:58:17.723Z,98278.16
2023-02-17T15:00:44.033Z,98278.16
2023-02-17T15:03:10.510Z,98283.22
2023-02-17T15:05:36.910Z,98308.81
2023-02-17T15:08:03.515Z,98306.16
2023-02-17T15:10:32.765Z,98308.28
2023-02-17T15:12:59.101Z,98288.00
2023-02-17T15:15:25.698Z,98305.09
2023-02-17T15:17:52.036Z,98310.94
2023-02-17T15:20:18.418Z,98312.56
2023-02-17T15:22:44.785Z,98313.09
2023-02-17T15:25:14.830Z,98314.69
2023-02-17T15:27:41.454Z,98316.84
2023-02-17T15:30:11.428Z,98324.56
2023-02-17T15:32:38.375Z,98322.47
2023-02-17T15:35:10.334Z,98319.00
2023-02-17T15:37:36.983Z,98325.91
2023-02-17T15:40:03.308Z,98336.88
2023-02-17T15:42:30.002Z,98323.22
2023-02-17T15:44:56.322Z,98333.91
2023-02-17T15:47:22.660Z,98316.56
2023-02-17T15:49:48.979Z,98309.91
2023-02-17T15:52:15.531Z,98324.28
2023-02-17T15:54:42.913Z,98341.06
2023-02-17T15:57:14.020Z,98344.00
2023-02-17T15:59:40.368Z,98348.56
2023-02-17T16:02:15.783Z,98345.88
2023-02-17T16:04:43.263Z,98335.22
2023-02-17T16:07:09.843Z,98344.81
2023-02-17T16:09:36.150Z,98352.53
2023-02-17T16:12:02.786Z,98350.94
2023-02-17T16:14:35.848Z,98364.25
2023-02-17T16:17:02.543Z,98361.06
2023-02-17T16:19:28.982Z,98350.41
2023-02-17T16:21:55.314Z,98363.19
2023-02-17T16:24:22.010Z,98361.59
2023-02-17T16:26:48.328Z,98367.22
2023-02-17T16:29:15.342Z,98363.75
2023-02-17T16:31:41.778Z,98370.97
2023-02-17T16:34:08.153Z,98383.25
2023-02-17T16:36:34.743Z,98375.53
2023-02-17T16:39:02.802Z,98369.41
2023-02-17T16:41:29.116Z,98375.81
2023-02-17T16:43:55.438Z,98375.81
2023-02-17T16:46:27.508Z,98396.09
2023-02-17T16:48:54.220Z,98397.69
2023-02-17T16:51:21.340Z,98408.91
2023-02-17T16:53:47.701Z,98406.75
2023-02-17T16:56:15.150Z,98427.03
2023-02-17T16:58:41.470Z,98419.03
2023-02-17T17:01:12.511Z,98425.72
2023-02-17T17:03:40.084Z,98434.00
2023-02-17T17:06:14.953Z,98445.19
2023-02-17T17:08:41.268Z,98445.19
2023-02-17T17:11:08.740Z,98441.72
2023-02-17T17:13:35.057Z,98446.81
2023-02-17T17:16:01.366Z,98440.13
2023-02-17T17:18:27.683Z,98458.28
2023-02-17T17:20:54.004Z,98459.88
2023-02-17T17:23:20.375Z,98460.16
2023-02-17T17:25:46.875Z,98467.38
2023-02-17T17:28:14.272Z,98475.38
2023-02-17T17:30:40.589Z,98483.41
2023-02-17T17:33:07.089Z,98495.66
2023-02-17T17:35:33.401Z,98471.63
2023-02-17T17:37:59.713Z,98474.81
2023-02-17T17:40:27.262Z,98478.84
2023-02-17T17:42:53.562Z,98480.97
2023-02-17T17:45:19.876Z,98477.53
2023-02-17T17:47:46.192Z,98489.03
2023-02-17T17:50:13.535Z,98485.81
2023-02-17T17:52:39.934Z,98455.38
2023-02-17T17:55:06.409Z,98463.91
2023-02-17T17:57:34.816Z,98482.59
2023-02-17T18:00:01.145Z,98494.09
2023-02-17T18:02:27.490Z,98487.38
2023-02-17T18:04:53.948Z,98475.66
2023-02-17T18:07:20.280Z,98486.56
2023-02-17T18:09:46.587Z,98479.66
2023-02-17T18:12:14.107Z,98489.00
2023-02-17T18:14:40.534Z,98489.53
2023-02-17T18:17:06.988Z,98492.19
2023-02-17T18:19:33.307Z,98493.50
2023-02-17T18:21:59.728Z,98484.72
2023-02-17T18:24:26.059Z,98494.88
2023-02-17T18:26:52.488Z,98503.94
2023-02-17T18:29:19.085Z,98495.16
2023-02-17T18:31:45.497Z,98513.00
2023-02-17T18:34:11.954Z,98514.06
2023-02-17T18:36:38.391Z,98512.19
2023-02-17T18:39:05.119Z,98523.69
2023-02-17T18:41:32.760Z,98512.19
2023-02-17T18:43:59.720Z,98520.72
2023-02-17T18:46:27.177Z,98526.63
2023-02-17T18:48:53.897Z,98549.56
2023-02-17T18:51:23.102Z,98570.13
2023-02-17T18:53:52.288Z,98578.72
2023-02-17T18:56:20.991Z,98596.88
2023-02-17T18:58:47.542Z,98601.44
2023-02-17T19:01:14.784Z,98609.75
2023-02-17T19:03:41.107Z,98603.31
2023-02-17T19:06:11.328Z,98611.84
2023-02-17T19:08:37.904Z,98634.56
2023-02-17T19:11:04.212Z,98609.97
2023-02-17T19:13:30.526Z,98595.06
2023-02-17T19:16:03.992Z,98603.56
2023-02-17T19:18:30.328Z,98608.63
2023-02-17T19:20:56.839Z,98613.97
2023-02-17T19:23:23.138Z,98596.06
2023-02-17T19:25:49.463Z,98605.69
2023-02-17T19:28:15.784Z,98611.84
2023-02-17T19:30:42.206Z,98609.94
2023-02-17T19:33:08.515Z,98602.75
2023-02-17T19:35:34.826Z,98595.53
2023-02-17T19:38:01.139Z,98605.94
2023-02-17T19:40:27.461Z,98624.91
2023-02-17T19:42:53.779Z,98618.50
2023-02-17T19:45:20.090Z,98618.75
2023-02-17T19:47:46.455Z,98614.47
2023-02-17T19:50:12.770Z,98631.81
2023-02-17T19:52:39.272Z,98629.16
2023-02-17T19:55:05.980Z,98631.53
2023-02-17T19:57:32.292Z,98630.47
2023-02-17T19:59:58.609Z,98629.44
2023-02-17T20:02:25.009Z,98638.88
2023-02-17T20:04:51.347Z,98638.88
2023-02-17T20:07:17.656Z,98649.28
2023-02-17T20:09:43.981Z,98646.91
2023-02-17T20:12:10.356Z,98646.91
2023-02-17T20:14:36.900Z,98653.56
2023-02-17T20:17:03.256Z,98662.34
2023-02-17T20:19:29.564Z,98663.94
2023-02-17T20:21:55.917Z,98655.63
2023-02-17T20:24:22.757Z,98664.19
2023-02-17T20:26:50.818Z,98672.69
2023-02-17T20:29:17.127Z,98668.72
2023-02-17T20:31:43.592Z,98666.28
2023-02-17T20:34:21.536Z,98668.72
2023-02-17T20:36:47.867Z,98678.91
2023-02-17T20:39:14.607Z,98685.31
2023-02-17T20:41:40.926Z,98694.97
2023-02-17T20:44:07.254Z,98699.25
2023-02-17T20:46:33.697Z,98697.06
2023-02-17T20:49:00.045Z,98702.41
2023-02-17T20:51:26.356Z,98702.88
2023-02-17T20:53:52.673Z,98710.88
2023-02-17T20:56:19.869Z,98711.47
2023-02-17T20:58:46.188Z,98699.16
2023-02-17T21:01:12.559Z,98702.16
2023-02-17T21:03:38.886Z,98703.22
2023-02-17T21:06:06.622Z,98715.25
2023-02-17T21:08:33.137Z,98719.81
2023-02-17T21:10:59.477Z,98726.19
2023-02-17T21:13:25.799Z,98725.94
2023-02-17T21:15:52.164Z,98725.38
2023-02-17T21:18:18.478Z,98717.69
2023-02-17T21:20:44.877Z,98720.94
2023-02-17T21:23:11.179Z,98719.38
2023-02-17T21:25:37.507Z,98715.38
2023-02-17T21:28:03.820Z,98724.47
2023-02-17T21:30:30.184Z,98720.22
2023-02-17T21:32:56.622Z,98712.72
2023-02-17T21:35:23.259Z,98724.47
2023-02-17T21:37:49.566Z,98725.00
2023-02-17T21:40:15.901Z,98728.50
2023-02-17T21:43:01.028Z,98715.09
2023-02-17T21:45:27.403Z,98716.97
2023-02-17T21:47:53.717Z,98721.75
2023-02-17T21:50:21.269Z,98725.78
2023-02-17T21:52:47.590Z,98726.84
2023-02-17T21:55:13.924Z,98739.16
2023-02-17T21:57:40.365Z,98742.38
2023-02-17T22:00:08.648Z,98746.41
2023-02-17T22:02:34.964Z,98744.53
2023-02-17T22:05:01.283Z,98745.31
2023-02-17T22:07:27.607Z,98750.69
2023-02-17T22:09:53.932Z,98752.28
2023-02-17T22:12:20.263Z,98746.69
2023-02-17T22:14:46.603Z,98749.09
2023-02-17T22:17:12.937Z,98744.53
2023-02-17T22:19:39.259Z,98744.81
2023-02-17T22:22:05.566Z,98758.72
2023-02-17T22:24:31.899Z,98756.06
2023-02-17T22:26:58.222Z,98772.91
2023-02-17T22:29:24.552Z,98767.56
2023-02-17T22:31:55.625Z,98768.06
2023-02-17T22:34:22.224Z,98774.22
2023-02-17T22:36:48.538Z,98765.69
2023-02-17T22:39:14.862Z,98752.59
2023-02-17T22:41:41.187Z,98771.31
2023-02-17T22:44:07.823Z,98780.38
2023-02-17T22:46:34.327Z,98790.28
2023-02-17T22:49:00.684Z,98777.69
2023-02-17T22:51:28.212Z,98780.38
2023-02-17T22:53:54.570Z,98775.56
2023-02-17T22:56:21.145Z,98776.91
2023-02-17T22:58:47.600Z,98775.31
2023-02-17T23:01:17.523Z,98779.56
2023-02-17T23:03:44.477Z,98779.56
2023-02-17T23:06:14.366Z,98777.69
2023-02-17T23:08:40.706Z,98768.88
2023-02-17T23:11:07.639Z,98762.72
2023-02-17T23:13:33.950Z,98770.47
2023-02-17T23:16:00.486Z,98754.94
2023-02-17T23:18:28.321Z,98767.25
2023-02-17T23:20:54.966Z,98764.28
2023-02-17T23:23:21.298Z,98761.38
2023-02-17T23:25:48.903Z,98780.38
2023-02-17T23:28:15.447Z,98773.41
2023-02-17T23:30:42.360Z,98761.09
2023-02-17T23:33:08.976Z,98768.34
2023-02-17T23:35:38.701Z,98765.69
2023-02-17T23:38:05.037Z,98771.03
2023-02-17T23:40:31.373Z,98775.03
2023-02-17T23:42:57.701Z,98764.06
2023-02-17T23:45:24.050Z,98765.69
2023-02-17T23:47:50.404Z,98767.53
2023-02-17T23:50:17.259Z,98757.38
2023-02-17T23:52:44.110Z,98759.22
2023-02-17T23:55:10.426Z,98768.28
2023-02-17T23:57:39.178Z,98765.09
